Welcome to Northern Hawkes Bay. New Zealand.
PWS Header
      nz Flag



Hit Counter


W3C Valid W3C Valid logo


    Wairoa

Select any of the Stations below to visit their websites.










Historic Data from Weather Underground
Select the location of interest below. Wairoa is the default. Please have patience, this Data is slow to load in.
Northern Hawkes Bay Historical Data
Daily Summary for June 3, 2017 Units:  English    Metric   Both
« Previous Day
Next Day »
Daily Weekly Monthly Yearly Custom
  High: Low: Average:
Temperature: 62.6 °F 48.4 °F 54.9 °F
Dew Point: 54 °F 42.6 °F 49.1 °F
Humidity: 99% 60% 82%
Wind Speed: 13mph 0mph 4.8mph
Wind Gust: 19mph - -
Wind- - SSE
Pressure: 29.9 in 29.8 in -
Precipitation: 0.21 in    
Historical Graphs
 
 
Tabular Data for June 3, 2017
Time Temperature Dew Point Pressure Wind Wind Speed Wind Gust Humidity Rainfall Rate (Hourly) solar
00:02 49.8 °F 49.6 °F 29.9 in Calm   1.6 mph 99% 0 in 0 W/m2
00:07 49.5 °F 49.3 °F 29.9 in Calm   1.6 mph 99% 0 in 0 W/m2
00:12 49.1 °F 48.7 °F 29.9 in Calm   0.7 mph 99% 0 in 0 W/m2
00:17 49.1 °F 48.7 °F 29.9 in WNW 0.7 mph 1.6 mph 99% 0 in 0 W/m2
00:22 48.7 °F 48.6 °F 29.9 in Calm   1.6 mph 99% 0 in 0 W/m2
00:27 48.6 °F 48.4 °F 29.9 in Calm   2.2 mph 99% 0 in 0 W/m2
00:32 48.6 °F 48.4 °F 29.9 in NNE 1.6 mph 2.2 mph 99% 0 in 0 W/m2
00:37 48.4 °F 48 °F 29.9 in North 2.2 mph 3.8 mph 99% 0 in 0 W/m2
00:42 48.6 °F 48.4 °F 29.9 in Calm   3.8 mph 99% 0 in 0 W/m2
00:47 48.9 °F 48.7 °F 29.9 in NNW 0.7 mph 3.8 mph 99% 0 in 0 W/m2
00:52 49.6 °F 49.5 °F 29.9 in East 1.6 mph 3.8 mph 99% 0 in 0 W/m2
00:57 51.1 °F 50.7 °F 29.9 in SE 3.1 mph 7.6 mph 99% 0 in 0 W/m2
01:02 51.8 °F 51.3 °F 29.9 in SE 1.6 mph 9.8 mph 98% 0 in 0 W/m2
01:07 51.8 °F 51.3 °F 29.9 in SE 3.1 mph 9.8 mph 98% 0 in 0 W/m2
01:08 52 °F 51.4 °F 29.9 in ESE 2.2 mph 9.8 mph 98% 0 in 0 W/m2
01:13 52.2 °F 51.6 °F 29.9 in ESE 2.2 mph 6.9 mph 98% 0 in 0 W/m2
01:18 52.5 °F 52 °F 29.9 in ESE 3.8 mph 6 mph 98% 0 in 0 W/m2
01:23 52.9 °F 52.3 °F 29.9 in ESE 5.4 mph 9.8 mph 98% 0 in 0 W/m2
01:28 53.2 °F 52.7 °F 29.9 in ESE 7.6 mph 10.7 mph 98% 0 in 0 W/m2
01:33 53.2 °F 52.7 °F 29.9 in ESE 6 mph 12.1 mph 98% 0 in 0 W/m2
01:38 53.8 °F 52.7 °F 29.9 in ESE 2.2 mph 12.1 mph 96% 0 in 0 W/m2
01:43 53.8 °F 51.8 °F 29.9 in East 6 mph 9.8 mph 93% 0 in 0 W/m2
01:48 53.8 °F 51.3 °F 29.9 in East 3.1 mph 9.8 mph 91% 0 in 0 W/m2
01:53 53.8 °F 50.9 °F 29.9 in East 3.1 mph 7.6 mph 90% 0 in 0 W/m2
01:54 53.8 °F 50.9 °F 29.9 in East 3.8 mph 7.6 mph 90% 0 in 0 W/m2
01:59 53.6 °F 50.7 °F 29.9 in East 3.8 mph 6.9 mph 90% 0 in 0 W/m2
02:04 53.6 °F 51.1 °F 29.9 in East 6 mph 9.2 mph 91% 0 in 0 W/m2
02:09 53.4 °F 51.3 °F 29.9 in ESE 5.4 mph 13 mph 92% 0.01 in 0 W/m2
02:14 53.2 °F 51.1 °F 29.9 in ESE 5.4 mph 13 mph 92% 0.01 in 0 W/m2
02:19 53.1 °F 51.1 °F 29.9 in ESE 3.8 mph 13 mph 93% 0.01 in 0 W/m2
02:24 53.1 °F 51.1 °F 29.9 in SE 1.6 mph 9.2 mph 93% 0.01 in 0 W/m2
02:29 53.1 °F 51.1 °F 29.9 in SE 2.2 mph 8.3 mph 93% 0.01 in 0 W/m2
02:34 52.9 °F 50.9 °F 29.9 in SE 3.1 mph 8.3 mph 93% 0.01 in 0 W/m2
02:39 52.9 °F 50.5 °F 29.9 in SE 3.1 mph 8.3 mph 92% 0.01 in 0 W/m2
02:44 52.9 °F 50.5 °F 29.9 in SE 2.2 mph 7.6 mph 92% 0.01 in 0 W/m2
02:49 52.9 °F 50.9 °F 29.9 in ESE 0.7 mph 4.5 mph 93% 0.01 in 0 W/m2
02:54 52.9 °F 50.9 °F 29.9 in East 3.8 mph 5.4 mph 93% 0.01 in 0 W/m2
03:04 53.1 °F 51.1 °F 29.9 in East 2.2 mph 8.3 mph 93% 0.01 in 0 W/m2
03:09 53.1 °F 50.7 °F 29.9 in ENE 2.2 mph 8.3 mph 92% 0 in 0 W/m2
03:14 52.9 °F 50.5 °F 29.9 in ENE 1.6 mph 6.9 mph 92% 0 in 0 W/m2
03:19 52.7 °F 50.4 °F 29.9 in ENE 4.5 mph 5.4 mph 92% 0 in 0 W/m2
03:24 52.7 °F 50.7 °F 29.9 in ENE 1.6 mph 5.4 mph 93% 0 in 0 W/m2
03:29 52.5 °F 50.5 °F 29.9 in Calm   5.4 mph 93% 0 in 0 W/m2
03:34 52.3 °F 50.4 °F 29.9 in NNE 0.7 mph 2.2 mph 93% 0 in 0 W/m2
03:39 52 °F 50 °F 29.9 in NNW 0.7 mph 1.6 mph 93% 0 in 0 W/m2
03:44 51.6 °F 50 °F 29.9 in WNW 1.6 mph 2.2 mph 94% 0 in 0 W/m2
03:49 51.6 °F 50 °F 29.9 in WSW 0.7 mph 3.1 mph 94% 0 in 0 W/m2
03:54 51.6 °F 50 °F 29.9 in WNW 0.7 mph 3.1 mph 94% 0 in 0 W/m2
03:59 51.6 °F 50.2 °F 29.9 in North 0.7 mph 2.2 mph 95% 0 in 0 W/m2
04:04 51.6 °F 50.2 °F 29.9 in NNE 1.6 mph 3.1 mph 95% 0 in 0 W/m2
04:09 51.8 °F 50.2 °F 29.9 in NE 3.1 mph 4.5 mph 94% 0 in 0 W/m2
04:14 52 °F 50.5 °F 29.9 in ENE 5.4 mph 9.2 mph 95% 0.01 in 0 W/m2
04:19 52.2 °F 50.7 °F 29.9 in East 3.8 mph 9.2 mph 95% 0.01 in 0 W/m2
04:24 52.3 °F 51.3 °F 29.9 in East 1.6 mph 9.2 mph 96% 0.01 in 0 W/m2
04:29 52.3 °F 51.3 °F 29.9 in East 0.7 mph 5.4 mph 96% 0.01 in 0 W/m2
04:34 52.3 °F 51.3 °F 29.9 in Calm   3.8 mph 96% 0.01 in 0 W/m2
04:39 52.3 °F 51.3 °F 29.9 in ENE 6 mph 7.6 mph 96% 0.01 in 0 W/m2
04:44 52.5 °F 50.5 °F 29.9 in SE 6.9 mph 11.4 mph 93% 0.01 in 0 W/m2
04:49 53.2 °F 51.1 °F 29.9 in SE 4.5 mph 11.4 mph 92% 0.01 in 0 W/m2
04:54 53.2 °F 50.7 °F 29.9 in ESE 6 mph 12.1 mph 91% 0.01 in 0 W/m2
04:59 53.1 °F 50.2 °F 29.9 in ESE 5.4 mph 12.1 mph 90% 0.01 in 0 W/m2
05:04 53.1 °F 50.2 °F 29.9 in SSE 3.8 mph 9.2 mph 90% 0.01 in 0 W/m2
05:09 53.2 °F 50.4 °F 29.9 in SSE 4.5 mph 9.2 mph 90% 0.01 in 0 W/m2
05:14 53.1 °F 50.2 °F 29.9 in SE 4.5 mph 9.2 mph 90% 0 in 0 W/m2
05:19 53.1 °F 50.2 °F 29.9 in ESE 2.2 mph 8.3 mph 90% 0 in 0 W/m2
05:24 52.9 °F 50 °F 29.9 in SE 1.6 mph 8.3 mph 90% 0 in 0 W/m2
05:29 52.9 °F 50.4 °F 29.9 in SE 0.7 mph 3.8 mph 91% 0 in 0 W/m2
05:34 52.9 °F 50.5 °F 29.9 in SE 0.7 mph 3.8 mph 92% 0 in 0 W/m2
05:39 52.9 °F 50.5 °F 29.9 in Calm   3.8 mph 92% 0 in 0 W/m2
05:44 52.7 °F 50.4 °F 29.9 in SSE 1.6 mph 3.8 mph 92% 0 in 0 W/m2
05:49 52.7 °F 50.4 °F 29.9 in SSE 4.5 mph 9.2 mph 92% 0 in 0 W/m2
05:54 52.9 °F 50 °F 29.9 in SSE 2.2 mph 9.2 mph 90% 0 in 0 W/m2
05:59 52.9 °F 49.5 °F 29.9 in SSE 1.6 mph 7.6 mph 88% 0 in 0 W/m2
06:04 53.2 °F 48.9 °F 29.9 in South 3.8 mph 6.9 mph 85% 0 in 0 W/m2
06:09 53.6 °F 48.9 °F 29.9 in South 6 mph 8.3 mph 84% 0 in 0 W/m2
06:14 53.6 °F 49.5 °F 29.9 in South 4.5 mph 9.2 mph 86% 0 in 0 W/m2
06:19 53.6 °F 49.5 °F 29.9 in South 5.4 mph 9.2 mph 86% 0 in 0 W/m2
06:24 53.6 °F 49.3 °F 29.9 in SSW 3.8 mph 10.7 mph 85% 0 in 0 W/m2
06:29 53.6 °F 49.8 °F 29.9 in SSW 5.4 mph 10.7 mph 87% 0 in 0 W/m2
06:34 53.4 °F 50.5 °F 29.9 in South 5.4 mph 10.7 mph 90% 0 in 0 W/m2
06:39 53.4 °F 50.5 °F 29.9 in South 4.5 mph 9.2 mph 90% 0 in 0 W/m2
06:44 53.4 °F 50.5 °F 29.9 in South 3.8 mph 8.3 mph 90% 0 in 0 W/m2
06:49 53.4 °F 50.5 °F 29.9 in South 3.8 mph 6.9 mph 90% 0 in 0 W/m2
06:54 53.2 °F 50.2 °F 29.9 in SSW 3.8 mph 6.9 mph 89% 0 in 0 W/m2
06:59 53.4 °F 50.4 °F 29.9 in South 5.4 mph 8.3 mph 89% 0 in 0 W/m2
07:04 54.1 °F 49.6 °F 29.9 in SSE 4.5 mph 11.4 mph 85% 0 in 0 W/m2
07:09 54.3 °F 49.6 °F 29.9 in South 3.8 mph 11.4 mph 84% 0 in 0 W/m2
07:14 54.5 °F 49.8 °F 29.9 in South 5.4 mph 9.2 mph 84% 0 in 0 W/m2
07:20 54.7 °F 50.4 °F 29.9 in South 5.4 mph 10.7 mph 85% 0 in 0 W/m2
07:25 54.7 °F 50.4 °F 29.9 in South 6 mph 10.7 mph 85% 0 in 1 W/m2
07:30 54.5 °F 50.2 °F 29.9 in South 9.2 mph 13 mph 85% 0 in 3 W/m2
07:35 54.7 °F 50.4 °F 29.9 in South 8.3 mph 15.2 mph 85% 0 in 4 W/m2
07:40 54.7 °F 50.4 °F 29.9 in South 6 mph 15.2 mph 85% 0 in 4 W/m2
07:45 54.9 °F 50.4 °F 29.9 in South 4.5 mph 12.1 mph 85% 0 in 5 W/m2
07:50 54.7 °F 50.5 °F 29.9 in South 4.5 mph 12.1 mph 86% 0 in 4 W/m2
07:55 54.3 °F 50.5 °F 29.9 in South 7.6 mph 9.8 mph 87% 0.02 in 8 W/m2
08:00 54.1 °F 50.7 °F 29.8 in SSW 9.8 mph 17.4 mph 88% 0.02 in 11 W/m2
08:05 54.7 °F 50.9 °F 29.9 in SSW 11.4 mph 17.4 mph 87% 0.02 in 13 W/m2
08:10 54.9 °F 50.4 °F 29.9 in South 6 mph 17.4 mph 85% 0.02 in 10 W/m2
08:15 54.7 °F 50.4 °F 29.9 in South 5.4 mph 13.6 mph 85% 0.04 in 13 W/m2
08:20 54.7 °F 50.9 °F 29.9 in SSE 5.4 mph 13 mph 87% 0.04 in 22 W/m2
08:25 54.3 °F 51.3 °F 29.9 in SE 3.8 mph 9.2 mph 89% 0.04 in 24 W/m2
08:30 54 °F 51.1 °F 29.9 in ESE 6 mph 9.8 mph 90% 0.04 in 35 W/m2
08:35 54 °F 51.4 °F 29.9 in SSE 4.5 mph 13.6 mph 91% 0.04 in 49 W/m2
08:40 53.8 °F 51.3 °F 29.9 in SE 5.4 mph 13.6 mph 91% 0.04 in 52 W/m2
08:45 53.2 °F 51.1 °F 29.9 in SE 4.5 mph 13.6 mph 92% 0.04 in 58 W/m2
08:50 52.9 °F 50.5 °F 29.9 in SSE 4.5 mph 13 mph 92% 0.02 in 96 W/m2
08:55 53.1 °F 50.7 °F 29.9 in South 3.1 mph 9.2 mph 92% 0.01 in 90 W/m2
09:01 53.4 °F 51.3 °F 29.9 in South 5.4 mph 8.3 mph 92% 0.01 in 89 W/m2
09:06 53.4 °F 51.3 °F 29.9 in SSE 3.8 mph 9.2 mph 92% 0.01 in 87 W/m2
09:11 53.2 °F 51.1 °F 29.9 in SSE 3.8 mph 9.2 mph 92% 0.01 in 67 W/m2
09:16 53.2 °F 51.1 °F 29.9 in SSE 3.8 mph 7.6 mph 92% 0 in 67 W/m2
09:21 53.2 °F 51.3 °F 29.9 in South 3.8 mph 6 mph 93% 0 in 46 W/m2
09:26 53.4 °F 51.4 °F 29.9 in South 4.5 mph 8.3 mph 93% 0 in 72 W/m2
09:31 53.6 °F 51.6 °F 29.9 in South 4.5 mph 8.3 mph 93% 0.01 in 109 W/m2
09:36 54.1 °F 52.2 °F 29.9 in SSE 3.1 mph 8.3 mph 93% 0.02 in 115 W/m2
09:41 54.3 °F 52.3 °F 29.9 in SSE 5.4 mph 8.3 mph 93% 0.02 in 145 W/m2
09:46 54.9 °F 52.9 °F 29.9 in SE 4.5 mph 9.2 mph 93% 0.02 in 134 W/m2
09:51 54.9 °F 52.5 °F 29.9 in SE 2.2 mph 9.2 mph 92% 0.02 in 106 W/m2
09:56 55.4 °F 52.5 °F 29.9 in SSE 3.1 mph 6.9 mph 90% 0.02 in 100 W/m2
10:01 56.5 °F 53.6 °F 29.9 in SSE 1.6 mph 6 mph 90% 0.02 in 133 W/m2
10:06 57.6 °F 54 °F 29.9 in SSE 3.1 mph 5.4 mph 88% 0.02 in 108 W/m2
10:11 57.9 °F 53.8 °F 29.9 in SE 3.1 mph 6.9 mph 86% 0.02 in 122 W/m2
10:16 58.3 °F 53.8 °F 29.9 in SSE 2.2 mph 6.9 mph 85% 0.02 in 114 W/m2
10:21 57.9 °F 53.1 °F 29.9 in SSE 3.1 mph 8.3 mph 84% 0.02 in 72 W/m2
10:26 57 °F 52.5 °F 29.9 in SE 3.1 mph 8.3 mph 85% 0.02 in 186 W/m2
10:31 58.3 °F 53.8 °F 29.9 in SE 6 mph 10.7 mph 85% 0.02 in 166 W/m2
10:36 57.9 °F 51.4 °F 29.9 in ESE 5.4 mph 10.7 mph 79% 0.01 in 181 W/m2
10:41 58.1 °F 50.5 °F 29.9 in ESE 4.5 mph 10.7 mph 76% 0.01 in 180 W/m2
10:46 58.5 °F 51.3 °F 29.9 in ESE 5.4 mph 10.7 mph 77% 0.01 in 130 W/m2
10:51 57.9 °F 50.7 °F 29.9 in ESE 4.5 mph 9.2 mph 77% 0.01 in 113 W/m2
10:56 57.4 °F 49.8 °F 29.9 in ESE 5.4 mph 10.7 mph 76% 0.01 in 124 W/m2
11:01 57.2 °F 50.2 °F 29.9 in ESE 2.2 mph 10.7 mph 77% 0.01 in 124 W/m2
11:06 57.9 °F 50.7 °F 29.9 in ESE 3.1 mph 9.8 mph 77% 0.01 in 116 W/m2
11:11 58.8 °F 51.3 °F 29.9 in ESE 3.8 mph 7.6 mph 76% 0.01 in 133 W/m2
11:16 59.4 °F 51.1 °F 29.9 in ESE 3.8 mph 8.3 mph 74% 0.01 in 209 W/m2
11:21 59.7 °F 51.1 °F 29.9 in ESE 3.8 mph 12.1 mph 73% 0.01 in 231 W/m2
11:26 59.9 °F 51.6 °F 29.9 in ESE 4.5 mph 12.1 mph 74% 0.01 in 244 W/m2
11:31 59.2 °F 50.9 °F 29.9 in SE 3.1 mph 10.7 mph 74% 0 in 191 W/m2
11:36 57.4 °F 50.9 °F 29.9 in SSE 3.8 mph 10.7 mph 79% 0 in 146 W/m2
11:41 57.2 °F 52.3 °F 29.9 in South 3.8 mph 9.8 mph 84% 0 in 109 W/m2
11:46 58.5 °F 53.8 °F 29.8 in South 2.2 mph 6 mph 84% 0 in 104 W/m2
11:51 59.5 °F 53.8 °F 29.8 in South 3.8 mph 5.4 mph 81% 0 in 125 W/m2
11:57 60.6 °F 52.7 °F 29.8 in SSE 3.1 mph 6.9 mph 75% 0 in 199 W/m2
12:02 61.7 °F 53.1 °F 29.8 in SSE 3.8 mph 6.9 mph 73% 0 in 245 W/m2
12:07 61.9 °F 53.1 °F 29.8 in SSE 3.1 mph 7.6 mph 73% 0 in 230 W/m2
12:12 62.6 °F 53.1 °F 29.8 in SE 3.1 mph 7.6 mph 71% 0 in 209 W/m2
12:17 62.1 °F 51.1 °F 29.8 in SE 4.5 mph 7.6 mph 67% 0 in 205 W/m2
12:22 61.3 °F 49.1 °F 29.8 in SE 4.5 mph 13.6 mph 64% 0 in 221 W/m2
12:27 61.7 °F 48.9 °F 29.8 in SE 6 mph 13.6 mph 63% 0 in 218 W/m2
12:32 60.8 °F 47.3 °F 29.8 in ESE 6 mph 16.8 mph 61% 0 in 197 W/m2
12:37 60.1 °F 47.8 °F 29.8 in ESE 6.9 mph 16.8 mph 64% 0 in 176 W/m2
12:42 59.7 °F 47.5 °F 29.8 in ESE 6.9 mph 11.4 mph 64% 0 in 185 W/m2
12:46 59.5 °F 48.6 °F 29.8 in ESE 3.1 mph 11.4 mph 67% 0 in 196 W/m2
12:51 59.7 °F 47.8 °F 29.8 in ESE 5.4 mph 13 mph 65% 0 in 184 W/m2
12:56 60.1 °F 47.8 °F 29.8 in ESE 6 mph 13.6 mph 64% 0 in 157 W/m2
13:01 60.3 °F 48 °F 29.8 in SE 6.9 mph 13.6 mph 64% 0 in 98 W/m2
13:06 59.9 °F 47.3 °F 29.8 in SE 4.5 mph 12.1 mph 63% 0 in 98 W/m2
13:12 60.1 °F 47.5 °F 29.8 in SE 9.2 mph 15.2 mph 63% 0 in 165 W/m2
13:17 59.7 °F 47.1 °F 29.8 in SSE 4.5 mph 15.2 mph 63% 0 in 136 W/m2
13:22 59.5 °F 47.8 °F 29.8 in SSE 7.6 mph 14.5 mph 65% 0 in 125 W/m2
13:27 59.4 °F 47.7 °F 29.8 in SSE 9.2 mph 13.6 mph 65% 0 in 101 W/m2
13:32 59.9 °F 47.7 °F 29.8 in SSE 3.1 mph 13 mph 64% 0 in 134 W/m2
13:37 60.1 °F 48.4 °F 29.8 in SE 4.5 mph 13 mph 65% 0 in 142 W/m2
13:42 59.5 °F 46.9 °F 29.8 in ESE 5.4 mph 18.3 mph 63% 0 in 126 W/m2
13:47 59.7 °F 47.5 °F 29.8 in ESE 5.4 mph 18.3 mph 64% 0 in 139 W/m2
13:52 60.6 °F 48.7 °F 29.8 in SE 6 mph 11.4 mph 65% 0 in 178 W/m2
13:57 60.6 °F 48.4 °F 29.8 in SE 6.9 mph 14.5 mph 64% 0 in 159 W/m2
14:02 59.7 °F 47.8 °F 29.8 in SE 4.5 mph 14.5 mph 65% 0 in 137 W/m2
14:07 59 °F 46.9 °F 29.8 in ESE 7.6 mph 13 mph 64% 0 in 122 W/m2
14:12 58.6 °F 47.3 °F 29.8 in SE 5.4 mph 13 mph 66% 0 in 123 W/m2
14:17 58.3 °F 46.6 °F 29.8 in SE 4.5 mph 13 mph 65% 0 in 110 W/m2
14:22 58.3 °F 46.6 °F 29.8 in SE 7.6 mph 13 mph 65% 0 in 102 W/m2
14:27 58.3 °F 46.9 °F 29.8 in ESE 3.1 mph 12.1 mph 66% 0 in 96 W/m2
14:32 58.3 °F 46.6 °F 29.8 in SSE 7.6 mph 12.1 mph 65% 0 in 59 W/m2
14:37 57.9 °F 46.2 °F 29.8 in SSE 4.5 mph 10.7 mph 65% 0 in 108 W/m2
14:42 58.3 °F 46.6 °F 29.8 in SE 1.6 mph 12.1 mph 65% 0 in 82 W/m2
14:47 59 °F 46.4 °F 29.8 in ESE 3.8 mph 12.1 mph 63% 0 in 225 W/m2
14:52 60.3 °F 47.7 °F 29.8 in SE 6 mph 12.1 mph 63% 0 in 160 W/m2
14:57 61 °F 47.8 °F 29.8 in SSE 6 mph 13 mph 62% 0 in 285 W/m2
15:02 61.2 °F 47.1 °F 29.8 in SSE 9.2 mph 13 mph 60% 0 in 114 W/m2
15:07 59.5 °F 46.9 °F 29.8 in SSE 6 mph 13.6 mph 63% 0 in 114 W/m2
15:12 59.2 °F 47.5 °F 29.8 in South 6 mph 13.6 mph 65% 0 in 118 W/m2
15:17 58.8 °F 47.5 °F 29.8 in SSE 6.9 mph 13 mph 66% 0 in 92 W/m2
15:22 58.5 °F 47.1 °F 29.8 in SE 4.5 mph 13 mph 66% 0 in 85 W/m2
15:27 57.9 °F 46.6 °F 29.8 in SSE 7.6 mph 13 mph 66% 0 in 74 W/m2
15:32 57.7 °F 46.9 °F 29.8 in SSE 6.9 mph 13 mph 67% 0 in 67 W/m2
15:37 57.2 °F 46 °F 29.8 in SSE 6.9 mph 12.1 mph 66% 0 in 62 W/m2
15:42 57.2 °F 46.4 °F 29.8 in SSE 9.8 mph 13.6 mph 67% 0 in 60 W/m2
15:47 57.2 °F 46.4 °F 29.8 in South 6 mph 13.6 mph 67% 0 in 48 W/m2
15:52 57 °F 46.6 °F 29.8 in SSE 10.7 mph 14.5 mph 68% 0 in 39 W/m2
15:57 56.8 °F 46 °F 29.8 in SSE 6.9 mph 14.5 mph 67% 0 in 37 W/m2
16:02 56.7 °F 46.2 °F 29.8 in SSE 9.2 mph 19 mph 68% 0 in 35 W/m2
16:07 56.7 °F 45.9 °F 29.8 in SSE 5.4 mph 19 mph 67% 0 in 30 W/m2
16:12 56.7 °F 46.2 °F 29.8 in South 8.3 mph 16.8 mph 68% 0 in 20 W/m2
16:17 56.5 °F 45.7 °F 29.8 in South 10.7 mph 15.2 mph 67% 0 in 18 W/m2
16:22 56.5 °F 45.3 °F 29.8 in South 5.4 mph 15.2 mph 66% 0 in 12 W/m2
16:27 56.5 °F 46 °F 29.8 in SSE 6 mph 13.6 mph 68% 0 in 7 W/m2
16:32 56.3 °F 45.1 °F 29.8 in SSE 6.9 mph 11.4 mph 66% 0 in 5 W/m2
16:37 56.3 °F 45.5 °F 29.8 in SSE 5.4 mph 12.1 mph 67% 0 in 4 W/m2
16:42 56.1 °F 45.7 °F 29.8 in SSE 4.5 mph 12.1 mph 68% 0 in 2 W/m2
16:47 56.1 °F 46 °F 29.8 in South 6 mph 12.1 mph 69% 0 in 2 W/m2
16:52 56.1 °F 46 °F 29.8 in South 6 mph 12.1 mph 69% 0 in 0 W/m2
16:57 56.1 °F 46 °F 29.8 in South 7.6 mph 11.4 mph 69% 0 in 0 W/m2
17:02 56.1 °F 45.7 °F 29.8 in South 9.2 mph 15.9 mph 68% 0 in 0 W/m2
17:07 56.1 °F 45.7 °F 29.8 in SSE 5.4 mph 15.9 mph 68% 0 in 0 W/m2
17:12 55.9 °F 44.8 °F 29.8 in South 4.5 mph 15.9 mph 66% 0 in 0 W/m2
17:17 55.8 °F 44.6 °F 29.8 in SSE 3.8 mph 12.1 mph 66% 0 in 0 W/m2
17:22 55.6 °F 44.4 °F 29.8 in SSE 5.4 mph 12.1 mph 66% 0 in 0 W/m2
17:27 55.6 °F 44.4 °F 29.8 in South 6 mph 12.1 mph 66% 0 in 0 W/m2
17:32 55.4 °F 43.9 °F 29.8 in South 6.9 mph 11.4 mph 65% 0 in 0 W/m2
17:37 55.4 °F 42.6 °F 29.8 in South 7.6 mph 11.4 mph 62% 0 in 0 W/m2
17:42 55.4 °F 43 °F 29.8 in South 5.4 mph 10.7 mph 63% 0 in 0 W/m2
17:47 55.4 °F 43.3 °F 29.8 in South 3.8 mph 10.7 mph 64% 0 in 0 W/m2
17:52 55.6 °F 43.5 °F 29.8 in South 4.5 mph 9.8 mph 64% 0 in 0 W/m2
17:57 55.6 °F 44.1 °F 29.8 in South 6.9 mph 11.4 mph 65% 0 in 0 W/m2
18:02 55.9 °F 44.8 °F 29.8 in South 4.5 mph 11.4 mph 66% 0 in 0 W/m2
18:07 55.9 °F 44.8 °F 29.8 in South 4.5 mph 11.4 mph 66% 0 in 0 W/m2
18:12 55.6 °F 44.8 °F 29.8 in South 4.5 mph 11.4 mph 67% 0 in 0 W/m2
18:17 55.4 °F 44.6 °F 29.8 in South 4.5 mph 8.3 mph 67% 0 in 0 W/m2
18:22 55.2 °F 45.1 °F 29.8 in South 4.5 mph 7.6 mph 69% 0 in 0 W/m2
18:27 55.2 °F 46 °F 29.8 in South 3.1 mph 7.6 mph 71% 0 in 0 W/m2
18:32 55 °F 46.2 °F 29.8 in South 3.8 mph 7.6 mph 72% 0 in 0 W/m2
18:37 55.2 °F 46.8 °F 29.8 in South 3.8 mph 6.9 mph 73% 0 in 0 W/m2
18:42 55.2 °F 47.1 °F 29.8 in SE 3.1 mph 6.9 mph 74% 0 in 0 W/m2
18:47 54.9 °F 47.1 °F 29.8 in SE 3.1 mph 5.4 mph 75% 0 in 0 W/m2
18:52 55 °F 47.3 °F 29.8 in SSE 5.4 mph 10.7 mph 75% 0 in 0 W/m2
18:57 54.9 °F 46.8 °F 29.8 in SSE 3.8 mph 10.7 mph 74% 0 in 0 W/m2
19:02 55 °F 46.6 °F 29.8 in SSE 1.6 mph 8.3 mph 73% 0 in 0 W/m2
19:07 55 °F 46.9 °F 29.8 in SSE 3.1 mph 6 mph 74% 0 in 0 W/m2
19:12 55 °F 46.6 °F 29.8 in South 3.8 mph 7.6 mph 73% 0 in 0 W/m2
19:17 55.2 °F 47.1 °F 29.8 in South 4.5 mph 8.3 mph 74% 0 in 0 W/m2
19:22 54.7 °F 46.9 °F 29.8 in SSE 2.2 mph 9.2 mph 75% 0 in 0 W/m2
19:27 54 °F 46.9 °F 29.8 in SE 0.7 mph 9.2 mph 77% 0 in 0 W/m2
19:32 54 °F 47.7 °F 29.8 in SSE 8.3 mph 12.1 mph 79% 0 in 0 W/m2
19:37 54.9 °F 47.5 °F 29.8 in South 9.2 mph 13 mph 76% 0 in 0 W/m2
19:42 55.2 °F 47.1 °F 29.8 in South 6.9 mph 13 mph 74% 0 in 0 W/m2
19:47 55.4 °F 47.7 °F 29.8 in South 6.9 mph 13 mph 75% 0 in 0 W/m2
19:52 55.4 °F 47.7 °F 29.8 in South 6.9 mph 11.4 mph 75% 0 in 0 W/m2
19:57 55.4 °F 48.4 °F 29.8 in South 6.9 mph 15.2 mph 77% 0 in 0 W/m2
20:02 55.2 °F 48 °F 29.8 in SSW 13 mph 17.4 mph 77% 0 in 0 W/m2
20:07 55.2 °F 48.6 °F 29.8 in SSW 9.2 mph 17.4 mph 78% 0 in 0 W/m2
20:12 54.9 °F 48.6 °F 29.8 in SW 9.8 mph 17.4 mph 79% 0 in 0 W/m2
20:17 54.1 °F 48.4 °F 29.8 in SSW 7.6 mph 15.9 mph 81% 0 in 0 W/m2
20:22 53.8 °F 48.4 °F 29.8 in SSW 9.8 mph 15.2 mph 82% 0 in 0 W/m2
20:27 54.1 °F 48.7 °F 29.8 in SSW 6.9 mph 15.9 mph 82% 0 in 0 W/m2
20:32 53.8 °F 48.7 °F 29.8 in SSW 8.3 mph 15.9 mph 83% 0 in 0 W/m2
20:37 53.6 °F 48.9 °F 29.8 in SSW 9.8 mph 15.2 mph 84% 0 in 0 W/m2
20:42 53.2 °F 48.9 °F 29.8 in SSW 6 mph 15.9 mph 85% 0 in 0 W/m2
20:47 52.5 °F 48.6 °F 29.8 in SW 5.4 mph 15.9 mph 86% 0.02 in 0 W/m2
20:52 52.3 °F 48.9 °F 29.8 in SW 11.4 mph 14.5 mph 88% 0.02 in 0 W/m2
20:57 52.7 °F 49.3 °F 29.8 in SW 4.5 mph 13.6 mph 88% 0.02 in 0 W/m2
21:02 52.9 °F 49.5 °F 29.8 in SW 9.2 mph 16.8 mph 88% 0.02 in 0 W/m2
21:07 52.9 °F 49.5 °F 29.8 in SSW 8.3 mph 16.8 mph 88% 0.02 in 0 W/m2
21:12 52.5 °F 48.7 °F 29.8 in SSW 8.3 mph 16.8 mph 87% 0.02 in 0 W/m2
21:17 52.2 °F 48.4 °F 29.8 in SSW 9.8 mph 15.9 mph 87% 0.02 in 0 W/m2
21:22 52 °F 48.2 °F 29.8 in SSW 6.9 mph 15.9 mph 87% 0.02 in 0 W/m2
21:27 52.2 °F 48.7 °F 29.8 in SSW 6 mph 15.9 mph 88% 0.02 in 0 W/m2
21:32 52 °F 48.7 °F 29.8 in SSW 7.6 mph 15.2 mph 89% 0.02 in 0 W/m2
21:37 51.8 °F 48.9 °F 29.8 in SSW 8.3 mph 15.2 mph 90% 0.04 in 0 W/m2
21:42 51.4 °F 48.9 °F 29.8 in SSW 5.4 mph 14.5 mph 91% 0.05 in 0 W/m2
21:47 51.4 °F 49.3 °F 29.8 in SSW 10.7 mph 16.8 mph 92% 0.05 in 0 W/m2
21:52 51.3 °F 48.9 °F 29.8 in SSW 6 mph 16.8 mph 92% 0.05 in 0 W/m2
21:57 50.9 °F 48.9 °F 29.8 in SW 5.4 mph 14.5 mph 93% 0.06 in 0 W/m2
22:02 50.9 °F 48.9 °F 29.8 in SW 3.1 mph 10.7 mph 93% 0.06 in 0 W/m2
22:07 50.9 °F 48.9 °F 29.8 in WSW 6 mph 9.2 mph 93% 0.06 in 0 W/m2
22:12 50.9 °F 49.3 °F 29.8 in WSW 6 mph 9.2 mph 94% 0.06 in 0 W/m2
22:16 50.7 °F 49.1 °F 29.8 in SW 6 mph 10.7 mph 94% 0.08 in 0 W/m2
22:22 51.3 °F 49.8 °F 29.8 in SW 8.3 mph 13.6 mph 95% 0.09 in 0 W/m2
22:27 51.6 °F 50.2 °F 29.8 in SSW 7.6 mph 13.6 mph 95% 0.09 in 0 W/m2
22:32 51.8 °F 49.8 °F 29.8 in SW 6.9 mph 14.5 mph 93% 0.08 in 0 W/m2
22:37 52 °F 50 °F 29.8 in SSW 10.7 mph 15.9 mph 93% 0.08 in 0 W/m2
22:41 51.6 °F 49.6 °F 29.8 in SSW 7.6 mph 15.9 mph 93% 0.07 in 0 W/m2
22:47 51.6 °F 49.5 °F 29.8 in SSW 9.2 mph 15.9 mph 92% 0.05 in 0 W/m2
22:52 51.4 °F 49.3 °F 29.8 in SSW 6.9 mph 13.6 mph 92% 0.05 in 0 W/m2
22:57 51.4 °F 48.9 °F 29.8 in SSW 6 mph 13 mph 91% 0.04 in 0 W/m2
23:01 51.6 °F 49.1 °F 29.8 in SSW 6 mph 13 mph 91% 0.04 in 0 W/m2
23:07 51.8 °F 48.7 °F 29.8 in SSW 6.9 mph 13 mph 89% 0.04 in 0 W/m2
23:12 51.8 °F 48 °F 29.8 in SW 6.9 mph 11.4 mph 87% 0.04 in 0 W/m2
23:17 52 °F 48.2 °F 29.8 in SW 5.4 mph 11.4 mph 87% 0.01 in 0 W/m2
23:22 52 °F 47.8 °F 29.8 in SW 5.4 mph 9.2 mph 86% 0 in 0 W/m2
23:27 52.2 °F 48 °F 29.8 in SW 4.5 mph 9.2 mph 86% 0 in 0 W/m2
23:32 52.2 °F 47.8 °F 29.8 in SW 3.8 mph 8.3 mph 85% 0 in 0 W/m2
23:37 52.2 °F 47.8 °F 29.8 in SW 3.1 mph 9.2 mph 85% 0 in 0 W/m2
23:42 52.2 °F 47.8 °F 29.8 in WSW 3.1 mph 9.2 mph 85% 0 in 0 W/m2
23:47 52 °F 47.7 °F 29.8 in SW 3.1 mph 6 mph 85% 0 in 0 W/m2
23:52 52 °F 47.7 °F 29.8 in WSW 6 mph 13 mph 85% 0 in 0 W/m2
23:57 51.8 °F 47.8 °F 29.8 in WSW 3.1 mph 13 mph 86% 0 in 0 W/m2
Northern Hawkes Bay. New Zealand Historic Data
Compliments of Weather Underground - 2.25 mb